Time;durP1;ratioP1;P1;durP2;ratioP2;P2;SDS_P1;SDS_P2;PMS_P1;PMS_P2;Temp;Humidity;BMP_temperature;BMP_pressure;BME280_temperature;BME280_humidity;BME280_pressure;Samples;Min_cycle;Max_cycle;Signal;HPM_P1;HPM_P2
2023/09/18 00:00:14;;;;;;;8.13;7.43;;;23.00;23.30;;;;;;5022935;28;20184;-80
2023/09/18 00:02:40;;;;;;;7.87;7.40;;;23.00;22.90;;;;;;5024628;28;20537;-77
2023/09/18 00:05:05;;;;;;;7.87;7.40;;;23.00;22.70;;;;;;5026300;28;20188;-77
2023/09/18 00:07:31;;;;;;;8.03;7.60;;;23.00;22.70;;;;;;5025003;28;20201;-76
2023/09/18 00:09:56;;;;;;;7.50;7.00;;;23.10;23.00;;;;;;5022689;28;20181;-76
2023/09/18 00:12:22;;;;;;;7.23;6.93;;;23.10;23.00;;;;;;5022082;28;20178;-77
2023/09/18 00:14:49;;;;;;;7.40;7.00;;;23.10;23.20;;;;;;5025411;28;20583;-77
2023/09/18 00:17:16;;;;;;;8.23;7.73;;;23.10;23.30;;;;;;5026017;28;20207;-77
2023/09/18 00:19:42;;;;;;;7.73;7.33;;;23.00;23.20;;;;;;5023686;28;20423;-77
2023/09/18 00:22:08;;;;;;;7.97;7.50;;;23.10;23.20;;;;;;5022358;28;20834;-77
2023/09/18 00:24:33;;;;;;;8.13;7.53;;;23.10;23.10;;;;;;5023450;28;20519;-77
2023/09/18 00:26:59;;;;;;;7.57;7.20;;;23.10;23.30;;;;;;5025819;28;20283;-77
2023/09/18 00:29:25;;;;;;;8.50;7.90;;;23.00;23.30;;;;;;5026033;28;20230;-76
2023/09/18 00:31:50;;;;;;;8.10;7.47;;;23.10;23.50;;;;;;5024142;28;20188;-77
2023/09/18 00:34:16;;;;;;;7.87;7.43;;;23.00;23.40;;;;;;5025641;28;20208;-77
2023/09/18 00:36:41;;;;;;;8.97;8.27;;;23.00;23.70;;;;;;5023288;28;20279;-77
2023/09/18 00:39:08;;;;;;;8.07;7.67;;;23.00;23.70;;;;;;5022278;28;20177;-77
2023/09/18 00:41:33;;;;;;;8.33;7.83;;;23.00;23.80;;;;;;5022865;28;20184;-77
2023/09/18 00:43:59;;;;;;;8.33;7.83;;;22.90;23.70;;;;;;5025790;28;20427;-77
2023/09/18 00:46:26;;;;;;;8.33;7.93;;;22.90;23.60;;;;;;5025803;28;20606;-77
2023/09/18 00:48:53;;;;;;;8.10;7.70;;;22.90;23.60;;;;;;5022210;28;20182;-77
2023/09/18 00:51:19;;;;;;;8.37;7.97;;;22.90;23.60;;;;;;5022040;28;20491;-77
2023/09/18 00:53:48;;;;;;;8.20;7.70;;;22.90;23.60;;;;;;5024791;28;20436;-76
2023/09/18 00:56:14;;;;;;;8.57;8.07;;;22.90;23.70;;;;;;5025459;28;20205;-77
2023/09/18 00:58:40;;;;;;;7.90;7.40;;;22.90;23.70;;;;;;5023681;28;20766;-77
2023/09/18 01:01:05;;;;;;;7.97;7.60;;;22.90;23.90;;;;;;5020577;28;20612;-77
2023/09/18 01:03:31;;;;;;;8.10;7.70;;;22.90;23.90;;;;;;5022511;28;20515;-77
2023/09/18 01:05:57;;;;;;;7.90;7.50;;;22.90;23.80;;;;;;5027732;28;20176;-77
2023/09/18 01:08:23;;;;;;;8.33;7.70;;;22.90;23.90;;;;;;5027456;28;20506;-77
2023/09/18 01:10:52;;;;;;;7.90;7.50;;;22.90;23.90;;;;;;5026551;28;20193;-77
2023/09/18 01:13:28;;;;;;;7.97;7.53;;;22.90;23.60;;;;;;5025815;28;20177;-77
2023/09/18 01:16:05;;;;;;;8.63;8.10;;;22.90;24.00;;;;;;5026808;28;20459;-78
2023/09/18 01:18:31;;;;;;;7.50;7.10;;;22.90;23.60;;;;;;5027154;28;20434;-78
2023/09/18 01:20:56;;;;;;;8.47;7.77;;;22.80;23.60;;;;;;5024231;28;20425;-77
2023/09/18 01:23:22;;;;;;;8.47;7.90;;;22.90;23.60;;;;;;5022530;28;20182;-77
2023/09/18 01:25:47;;;;;;;7.80;7.30;;;22.80;23.60;;;;;;5024808;28;20236;-77
2023/09/18 01:28:13;;;;;;;7.90;7.50;;;22.80;23.60;;;;;;5026756;28;20193;-77
2023/09/18 01:30:38;;;;;;;7.03;6.60;;;22.90;23.40;;;;;;5025120;28;20193;-77
2023/09/18 01:33:04;;;;;;;7.60;7.20;;;22.90;22.80;;;;;;5021233;28;20240;-77
2023/09/18 01:35:33;;;;;;;8.13;7.60;;;23.00;22.70;;;;;;5022964;28;20224;-77
2023/09/18 01:38:00;;;;;;;8.23;7.83;;;23.00;22.50;;;;;;5015288;28;20205;-77
2023/09/18 01:40:26;;;;;;;7.50;7.10;;;23.10;22.50;;;;;;5022782;28;20995;-77
2023/09/18 01:42:53;;;;;;;8.00;7.60;;;23.10;22.40;;;;;;5025074;28;20455;-77
2023/09/18 01:45:18;;;;;;;8.50;8.07;;;23.10;22.50;;;;;;5025874;28;20446;-77
2023/09/18 01:47:45;;;;;;;7.80;7.40;;;23.10;22.60;;;;;;5027088;28;20447;-77
2023/09/18 01:50:11;;;;;;;7.73;7.33;;;23.10;22.80;;;;;;5021066;28;20174;-77
2023/09/18 01:52:36;;;;;;;8.17;7.77;;;23.10;22.70;;;;;;5022919;28;20886;-77
2023/09/18 01:55:05;;;;;;;7.13;6.80;;;23.10;22.30;;;;;;5025771;28;20200;-77
2023/09/18 01:57:31;;;;;;;7.70;7.07;;;23.10;22.10;;;;;;5025652;28;20204;-77
2023/09/18 01:59:57;;;;;;;7.77;7.20;;;23.20;21.10;;;;;;5021894;28;20924;-77
2023/09/18 02:02:22;;;;;;;7.63;7.23;;;23.30;20.70;;;;;;5020460;28;20208;-77
2023/09/18 02:04:48;;;;;;;8.13;7.53;;;23.40;20.10;;;;;;5021254;28;20612;-77
2023/09/18 02:07:13;;;;;;;7.43;6.83;;;23.50;22.60;;;;;;5021783;28;20216;-77
2023/09/18 02:09:39;;;;;;;8.20;7.60;;;23.40;22.80;;;;;;5022688;28;20291;-77
2023/09/18 02:12:05;;;;;;;7.60;7.00;;;23.30;23.90;;;;;;5024878;28;20188;-78
2023/09/18 02:14:31;;;;;;;8.13;7.53;;;23.20;23.90;;;;;;5025088;28;20653;-77
2023/09/18 02:16:57;;;;;;;10.00;7.97;;;23.20;24.70;;;;;;5013431;28;20538;-77
2023/09/18 02:19:22;;;;;;;9.47;7.67;;;23.20;24.80;;;;;;5028686;28;20428;-77
2023/09/18 02:21:48;;;;;;;7.70;7.10;;;23.10;26.20;;;;;;5030406;28;20641;-77
2023/09/18 02:24:14;;;;;;;7.60;7.00;;;23.00;26.80;;;;;;5032286;28;20172;-77
2023/09/18 02:26:39;;;;;;;9.63;8.67;;;23.00;27.10;;;;;;5029063;28;20207;-76
2023/09/18 02:29:13;;;;;;;8.70;7.83;;;23.00;28.40;;;;;;5025442;28;20181;-78
2023/09/18 02:31:39;;;;;;;8.17;7.57;;;23.00;27.90;;;;;;5021977;28;20247;-77
2023/09/18 02:34:05;;;;;;;8.30;7.53;;;23.00;28.20;;;;;;5024866;28;20545;-78
2023/09/18 02:36:30;;;;;;;8.70;7.80;;;22.90;27.30;;;;;;5024709;28;20192;-77
2023/09/18 02:38:56;;;;;;;9.03;8.17;;;22.90;26.50;;;;;;5030833;28;20229;-77
2023/09/18 02:41:21;;;;;;;8.37;7.77;;;22.80;27.70;;;;;;5022865;28;20176;-77
2023/09/18 02:43:47;;;;;;;8.27;7.50;;;22.80;26.10;;;;;;5022805;28;20257;-77
2023/09/18 02:46:12;;;;;;;8.27;7.50;;;22.70;26.90;;;;;;5023839;28;20528;-77
2023/09/18 02:48:38;;;;;;;12.80;7.80;;;22.70;25.50;;;;;;5030179;28;20226;-77
2023/09/18 02:51:05;;;;;;;12.47;7.70;;;22.70;25.80;;;;;;5028517;28;20208;-77
2023/09/18 02:53:31;;;;;;;9.33;8.47;;;22.70;24.60;;;;;;5026680;28;20589;-77
2023/09/18 02:55:58;;;;;;;11.70;8.70;;;22.60;24.70;;;;;;5024234;28;20550;-77
2023/09/18 02:58:25;;;;;;;9.37;8.33;;;22.60;24.80;;;;;;5024650;28;20522;-77
2023/09/18 03:00:53;;;;;;;10.03;8.77;;;22.50;25.00;;;;;;5020560;28;20439;-77
2023/09/18 03:03:19;;;;;;;12.00;8.67;;;22.50;25.60;;;;;;5020643;28;20420;-77
2023/09/18 03:05:44;;;;;;;11.17;8.30;;;22.40;25.30;;;;;;5021948;28;20516;-77
2023/09/18 03:08:11;;;;;;;12.83;9.10;;;22.30;25.50;;;;;;5024448;28;20181;-77
2023/09/18 03:10:41;;;;;;;9.40;8.37;;;22.30;25.50;;;;;;5023582;28;20188;-77
2023/09/18 03:13:08;;;;;;;9.63;8.83;;;22.30;25.80;;;;;;5020427;28;20451;-77
2023/09/18 03:15:35;;;;;;;9.67;8.80;;;22.30;25.30;;;;;;5021015;28;20879;-77
2023/09/18 03:18:01;;;;;;;9.73;8.73;;;22.40;24.40;;;;;;5013154;28;20519;-77
2023/09/18 03:20:31;;;;;;;9.67;8.77;;;22.40;25.00;;;;;;5020986;28;20420;-77
2023/09/18 03:22:58;;;;;;;10.63;9.53;;;22.40;25.60;;;;;;5021928;28;20430;-77
2023/09/18 03:25:25;;;;;;;8.77;7.70;;;22.20;26.00;;;;;;5024308;28;20416;-77
2023/09/18 03:27:52;;;;;;;9.63;8.73;;;22.20;26.50;;;;;;5022028;28;20457;-78
2023/09/18 03:30:19;;;;;;;9.37;8.23;;;22.10;26.80;;;;;;5020696;28;20428;-77
2023/09/18 03:32:45;;;;;;;9.07;8.33;;;22.10;26.40;;;;;;5021883;28;20803;-77
2023/09/18 03:35:17;;;;;;;9.50;8.70;;;22.00;26.20;;;;;;5023092;28;20454;-77
2023/09/18 03:37:43;;;;;;;9.50;8.70;;;22.00;26.40;;;;;;5023235;28;20522;-77
2023/09/18 03:40:09;;;;;;;9.50;8.80;;;22.00;27.30;;;;;;5021318;28;20515;-77
2023/09/18 03:42:35;;;;;;;9.33;8.63;;;22.00;27.30;;;;;;5019964;28;20530;-77
2023/09/18 03:45:00;;;;;;;8.93;8.33;;;22.10;26.90;;;;;;5035507;28;20415;-77
2023/09/18 03:47:26;;;;;;;9.07;7.83;;;22.20;26.80;;;;;;5039104;28;20194;-77
2023/09/18 03:49:51;;;;;;;9.57;8.57;;;22.30;26.70;;;;;;5042027;28;20187;-77
2023/09/18 03:52:17;;;;;;;9.97;8.90;;;22.30;26.60;;;;;;5038548;28;20185;-77
2023/09/18 03:54:42;;;;;;;12.07;9.50;;;22.30;26.60;;;;;;5040583;28;20215;-77
2023/09/18 03:57:08;;;;;;;9.00;8.13;;;22.30;27.00;;;;;;5034635;28;20201;-77
2023/09/18 03:59:33;;;;;;;11.70;8.57;;;22.20;26.90;;;;;;5038483;28;20247;-77
2023/09/18 04:01:59;;;;;;;10.30;9.30;;;22.10;26.20;;;;;;5033434;28;20519;-77
2023/09/18 04:04:24;;;;;;;9.43;8.73;;;22.10;26.30;;;;;;5023835;28;20181;-77
2023/09/18 04:06:50;;;;;;;9.70;9.10;;;22.10;26.10;;;;;;5024116;28;20556;-77
2023/09/18 04:09:15;;;;;;;9.93;9.13;;;22.10;26.00;;;;;;5036584;28;20200;-76
2023/09/18 04:11:41;;;;;;;9.50;8.83;;;22.10;25.90;;;;;;5032927;28;20185;-77
2023/09/18 04:14:07;;;;;;;9.50;9.00;;;22.20;26.10;;;;;;5025340;28;20559;-77
2023/09/18 04:16:35;;;;;;;9.00;8.37;;;22.20;25.70;;;;;;5039959;28;20211;-77
2023/09/18 04:19:01;;;;;;;9.90;8.70;;;22.30;25.70;;;;;;5031333;28;20314;-77
2023/09/18 04:21:27;;;;;;;10.60;9.53;;;22.30;25.60;;;;;;5035921;28;20491;-77
2023/09/18 04:23:57;;;;;;;9.53;9.07;;;22.30;26.40;;;;;;5025247;28;20802;-77
2023/09/18 04:26:23;;;;;;;10.40;9.70;;;22.40;25.90;;;;;;5027334;28;20463;-77
2023/09/18 04:28:49;;;;;;;10.60;9.70;;;22.30;26.40;;;;;;5025986;28;20581;-77
2023/09/18 04:31:14;;;;;;;9.40;8.80;;;22.20;26.40;;;;;;5023348;28;20516;-77
2023/09/18 04:33:40;;;;;;;10.20;9.40;;;22.30;26.30;;;;;;5024349;28;20569;-77
2023/09/18 04:36:05;;;;;;;9.77;8.93;;;22.40;26.50;;;;;;5027697;28;20208;-77
2023/09/18 04:38:31;;;;;;;13.33;11.23;;;22.40;26.50;;;;;;5027923;28;20176;-77
2023/09/18 04:41:00;;;;;;;10.93;10.00;;;22.40;26.50;;;;;;5025174;28;20189;-77
2023/09/18 04:43:26;;;;;;;12.50;9.60;;;22.40;26.60;;;;;;5022942;28;20187;-77
2023/09/18 04:45:52;;;;;;;9.20;8.70;;;22.40;26.80;;;;;;5024829;28;20433;-77
2023/09/18 04:48:17;;;;;;;10.80;9.90;;;22.40;26.70;;;;;;5027739;28;20184;-77
2023/09/18 04:50:46;;;;;;;11.07;10.30;;;22.40;26.80;;;;;;5026707;28;20200;-77
2023/09/18 04:53:13;;;;;;;10.67;9.43;;;22.40;27.00;;;;;;5022696;28;20181;-77
2023/09/18 04:55:38;;;;;;;10.07;9.37;;;22.40;26.90;;;;;;5022695;28;20543;-76
2023/09/18 04:58:05;;;;;;;11.47;10.33;;;22.40;27.20;;;;;;5025322;28;20447;-77
2023/09/18 05:00:31;;;;;;;9.70;8.90;;;22.30;27.20;;;;;;5025449;28;20176;-77
2023/09/18 05:03:01;;;;;;;10.60;9.80;;;22.30;27.60;;;;;;5023409;28;20419;-77
2023/09/18 05:05:26;;;;;;;13.90;10.37;;;22.30;27.60;;;;;;5021973;28;20988;-76
2023/09/18 05:07:52;;;;;;;10.50;9.57;;;22.20;28.20;;;;;;5023291;28;20543;-77
2023/09/18 05:10:17;;;;;;;11.10;10.20;;;22.20;27.90;;;;;;5025333;28;20310;-77
2023/09/18 05:12:43;;;;;;;11.10;9.53;;;22.20;27.90;;;;;;5028075;28;20548;-77
2023/09/18 05:15:15;;;;;;;10.80;9.80;;;22.10;28.50;;;;;;5032136;28;20287;-77
2023/09/18 05:17:44;;;;;;;10.90;9.90;;;22.10;28.00;;;;;;5024404;28;20235;-77
2023/09/18 05:20:15;;;;;;;11.70;10.73;;;22.10;28.00;;;;;;5014058;28;20435;-77
2023/09/18 05:22:44;;;;;;;9.40;8.70;;;22.00;27.90;;;;;;5020360;28;20424;-77
2023/09/18 05:25:11;;;;;;;10.30;9.70;;;22.00;28.40;;;;;;5014436;28;20452;-77
2023/09/18 05:27:43;;;;;;;10.13;9.43;;;21.90;28.50;;;;;;5020904;28;20829;-77
2023/09/18 05:30:17;;;;;;;10.47;9.60;;;21.80;28.60;;;;;;5015029;28;20846;-77
2023/09/18 05:32:45;;;;;;;11.40;10.40;;;21.70;28.60;;;;;;5023444;28;20428;-77
2023/09/18 05:35:12;;;;;;;11.07;10.00;;;21.70;28.70;;;;;;5023718;28;20462;-77
2023/09/18 05:37:38;;;;;;;10.37;9.47;;;21.60;28.90;;;;;;5024848;28;20447;-77
2023/09/18 05:40:07;;;;;;;9.90;9.20;;;21.60;29.20;;;;;;5021989;28;20431;-77
2023/09/18 05:42:33;;;;;;;10.80;9.90;;;21.70;29.40;;;;;;5021012;28;20462;-77
2023/09/18 05:44:58;;;;;;;12.13;10.80;;;21.70;29.60;;;;;;5022095;28;20940;-76
2023/09/18 05:47:24;;;;;;;11.20;10.30;;;21.70;29.50;;;;;;5024477;28;20206;-77
2023/09/18 05:49:49;;;;;;;11.17;10.30;;;21.70;29.90;;;;;;5016658;28;20278;-77
2023/09/18 05:52:15;;;;;;;10.50;9.80;;;21.60;29.60;;;;;;5024294;28;20271;-77
2023/09/18 05:54:40;;;;;;;10.23;9.50;;;21.50;29.50;;;;;;5024212;28;20566;-77
2023/09/18 05:57:06;;;;;;;10.33;9.60;;;21.50;29.70;;;;;;5021239;28;20209;-77
2023/09/18 05:59:33;;;;;;;11.80;10.80;;;21.40;29.70;;;;;;5020808;28;20654;-77
2023/09/18 06:01:59;;;;;;;10.27;9.47;;;21.40;29.60;;;;;;5022559;28;20523;-77
2023/09/18 06:04:24;;;;;;;10.30;9.60;;;21.40;29.40;;;;;;5024518;28;20210;-77
2023/09/18 06:06:51;;;;;;;10.40;9.40;;;21.30;29.70;;;;;;5022516;28;20230;-77
2023/09/18 06:09:16;;;;;;;10.13;9.33;;;21.40;29.70;;;;;;5017400;28;20183;-77
2023/09/18 06:11:42;;;;;;;10.50;9.70;;;21.30;29.80;;;;;;5023750;28;20506;-77
2023/09/18 06:14:08;;;;;;;10.33;9.77;;;21.30;30.20;;;;;;5021080;28;20185;-76
2023/09/18 06:16:33;;;;;;;10.17;8.47;;;21.30;31.00;;;;;;5021203;28;20209;-76
2023/09/18 06:19:00;;;;;;;9.17;8.40;;;21.20;30.90;;;;;;5022908;28;20185;-76
2023/09/18 06:21:25;;;;;;;10.07;9.27;;;21.20;31.70;;;;;;5024278;28;20191;-76
2023/09/18 06:23:51;;;;;;;9.07;8.47;;;21.20;32.50;;;;;;5023233;28;20427;-77
2023/09/18 06:26:17;;;;;;;9.60;8.90;;;21.20;32.00;;;;;;5019436;28;20635;-78
2023/09/18 06:28:43;;;;;;;9.67;8.87;;;21.20;32.80;;;;;;5020965;28;20866;-76
2023/09/18 06:31:08;;;;;;;9.30;8.70;;;21.20;32.30;;;;;;5025713;28;20419;-75
2023/09/18 06:33:34;;;;;;;9.83;9.07;;;21.10;32.60;;;;;;5026674;28;20243;-77
2023/09/18 06:36:00;;;;;;;9.30;8.80;;;21.10;33.70;;;;;;5024156;28;20678;-76
2023/09/18 06:38:25;;;;;;;10.37;9.53;;;21.10;34.20;;;;;;5021458;28;20641;-77
2023/09/18 06:40:51;;;;;;;10.00;9.00;;;21.00;35.50;;;;;;5021844;28;20653;-77
2023/09/18 06:43:17;;;;;;;11.30;10.40;;;21.00;35.70;;;;;;5019947;28;20681;-78
2023/09/18 06:45:42;;;;;;;11.47;10.57;;;21.00;36.10;;;;;;5020734;28;20513;-77
2023/09/18 06:48:08;;;;;;;10.30;9.40;;;20.90;36.60;;;;;;5024433;28;20235;-77
2023/09/18 06:50:34;;;;;;;9.97;9.10;;;20.80;37.00;;;;;;5024860;28;20215;-76
2023/09/18 06:52:59;;;;;;;9.80;8.83;;;20.70;37.60;;;;;;5022676;28;20246;-77
2023/09/18 06:55:25;;;;;;;11.37;9.33;;;20.70;37.80;;;;;;5019519;28;20205;-77
2023/09/18 06:57:51;;;;;;;9.30;8.60;;;20.70;38.70;;;;;;5020386;28;20680;-77
2023/09/18 07:00:20;;;;;;;8.60;8.10;;;20.70;38.10;;;;;;5020245;28;20178;-77
2023/09/18 07:02:46;;;;;;;9.33;8.60;;;20.70;38.10;;;;;;5020203;28;20857;-77
2023/09/18 07:05:12;;;;;;;9.50;8.27;;;20.70;38.00;;;;;;5023597;28;20427;-76
2023/09/18 07:07:37;;;;;;;8.87;8.37;;;20.80;38.70;;;;;;5023337;28;20459;-77
2023/09/18 07:10:03;;;;;;;9.13;8.43;;;20.90;38.80;;;;;;5027762;28;20192;-77
2023/09/18 07:12:29;;;;;;;9.30;8.40;;;20.80;38.60;;;;;;5022862;28;20181;-77
2023/09/18 07:14:55;;;;;;;8.97;8.13;;;20.80;38.20;;;;;;5020936;28;20486;-77
2023/09/18 07:17:20;;;;;;;8.53;8.03;;;20.90;36.40;;;;;;5023530;28;20279;-77
2023/09/18 07:19:46;;;;;;;9.30;8.40;;;20.90;36.10;;;;;;5023519;28;20200;-77
2023/09/18 07:22:12;;;;;;;7.27;6.93;;;21.10;33.90;;;;;;5020102;28;20181;-77
2023/09/18 07:24:40;;;;;;;8.20;7.50;;;21.20;31.80;;;;;;5023963;28;20192;-77
2023/09/18 07:27:06;;;;;;;7.53;7.20;;;21.20;31.90;;;;;;5025957;28;20209;-77
2023/09/18 07:29:33;;;;;;;7.87;7.27;;;21.30;31.00;;;;;;5027100;28;20869;-77
2023/09/18 07:31:58;;;;;;;8.17;7.67;;;21.30;31.00;;;;;;5025544;28;20173;-77
2023/09/18 07:34:24;;;;;;;7.50;7.10;;;21.40;31.10;;;;;;5022465;28;20998;-77
2023/09/18 07:36:54;;;;;;;8.40;7.70;;;21.50;30.70;;;;;;5023500;28;20204;-77
2023/09/18 07:39:19;;;;;;;7.20;6.77;;;21.40;29.00;;;;;;5027219;28;20176;-77
2023/09/18 07:41:45;;;;;;;9.23;8.53;;;21.40;29.50;;;;;;5027049;28;20438;-77
2023/09/18 07:44:10;;;;;;;9.13;8.50;;;21.50;29.40;;;;;;5024301;28;20765;-77
2023/09/18 07:46:36;;;;;;;10.03;8.50;;;21.40;30.40;;;;;;5023768;28;20205;-76
2023/09/18 07:49:01;;;;;;;8.27;7.90;;;21.40;31.10;;;;;;5025346;28;20189;-77
2023/09/18 07:51:27;;;;;;;7.73;7.23;;;21.40;30.30;;;;;;5026487;28;20173;-77
2023/09/18 07:53:52;;;;;;;7.23;6.73;;;21.40;29.70;;;;;;5026467;28;20414;-76
2023/09/18 07:56:19;;;;;;;7.97;7.57;;;21.40;29.30;;;;;;5023408;28;20282;-79
2023/09/18 07:58:46;;;;;;;7.43;7.13;;;21.40;29.70;;;;;;5023278;28;20189;-76
2023/09/18 08:01:12;;;;;;;7.83;7.33;;;21.40;29.20;;;;;;5025922;28;20515;-76
2023/09/18 08:03:38;;;;;;;6.70;6.40;;;21.40;30.00;;;;;;5026493;28;20451;-77
2023/09/18 08:06:04;;;;;;;8.03;7.57;;;21.50;29.50;;;;;;5024697;28;20240;-77
2023/09/18 08:08:32;;;;;;;8.47;7.83;;;21.50;29.40;;;;;;5023359;28;20232;-77
2023/09/18 08:10:58;;;;;;;8.23;7.67;;;21.50;29.20;;;;;;5023880;28;20431;-76
2023/09/18 08:13:24;;;;;;;7.73;7.23;;;21.50;29.00;;;;;;5026472;28;20431;-76
2023/09/18 08:15:50;;;;;;;8.60;8.10;;;21.50;28.50;;;;;;5026432;28;20208;-76
2023/09/18 08:18:16;;;;;;;8.00;7.70;;;21.50;28.30;;;;;;5023423;28;20454;-76
2023/09/18 08:20:42;;;;;;;8.57;8.17;;;21.50;28.20;;;;;;5023374;28;20460;-77
2023/09/18 08:23:09;;;;;;;8.20;7.90;;;21.40;28.50;;;;;;5025292;28;20182;-77
2023/09/18 08:25:34;;;;;;;7.90;7.30;;;21.40;28.40;;;;;;5026923;28;20427;-77
2023/09/18 08:28:00;;;;;;;8.87;8.17;;;21.50;28.20;;;;;;5025196;28;20536;-77
2023/09/18 08:30:26;;;;;;;8.20;7.80;;;21.40;28.30;;;;;;5023074;28;20177;-77
2023/09/18 08:32:51;;;;;;;7.90;7.50;;;21.40;28.40;;;;;;5023074;28;20188;-77
2023/09/18 08:35:17;;;;;;;7.27;6.90;;;21.30;28.90;;;;;;5025869;28;20281;-76
2023/09/18 08:37:43;;;;;;;8.53;8.00;;;21.40;29.50;;;;;;5025742;28;20359;-77
2023/09/18 08:40:13;;;;;;;7.90;7.40;;;21.40;30.00;;;;;;5023954;28;20184;-77
2023/09/18 08:42:45;;;;;;;8.47;7.97;;;21.30;31.00;;;;;;5021520;28;20502;-77
2023/09/18 08:45:31;;;;;;;7.30;7.00;;;21.20;32.20;;;;;;5024653;28;20470;-77
2023/09/18 08:47:58;;;;;;;7.73;7.33;;;21.20;30.90;;;;;;5025213;28;20512;-76
2023/09/18 08:50:25;;;;;;;7.27;6.97;;;21.10;32.70;;;;;;5022280;28;20515;-76
2023/09/18 08:52:51;;;;;;;8.03;7.50;;;21.10;32.50;;;;;;5022452;28;20810;-77
2023/09/18 08:55:17;;;;;;;8.40;8.00;;;21.00;32.30;;;;;;5022648;28;20464;-77
2023/09/18 08:57:45;;;;;;;7.87;7.50;;;20.90;33.10;;;;;;5021462;28;20208;-77
2023/09/18 09:00:16;;;;;;;8.47;7.87;;;20.90;34.90;;;;;;5023437;28;20420;-77
2023/09/18 09:02:45;;;;;;;7.50;7.20;;;20.80;33.00;;;;;;5025475;28;20870;-77
2023/09/18 09:05:11;;;;;;;7.90;7.50;;;20.60;33.90;;;;;;5023279;28;20423;-77
2023/09/18 09:07:37;;;;;;;8.10;7.80;;;20.60;35.30;;;;;;5021057;28;20968;-77
2023/09/18 09:10:03;;;;;;;7.67;7.20;;;20.50;35.60;;;;;;5023368;28;20431;-77
2023/09/18 09:12:49;;;;;;;8.60;8.13;;;20.50;36.60;;;;;;5025956;28;20183;-77
2023/09/18 09:15:15;;;;;;;7.63;7.33;;;20.40;37.10;;;;;;5022792;28;20460;-77
2023/09/18 09:17:42;;;;;;;7.60;7.10;;;20.40;37.40;;;;;;5022176;28;20451;-77
2023/09/18 09:20:11;;;;;;;7.27;6.80;;;20.30;38.30;;;;;;5024109;28;20292;-77
2023/09/18 09:22:37;;;;;;;6.67;6.37;;;20.30;40.00;;;;;;5025534;28;20470;-77
2023/09/18 09:25:03;;;;;;;7.30;6.90;;;20.20;40.50;;;;;;5024276;28;20640;-76
2023/09/18 09:27:28;;;;;;;7.10;6.77;;;20.20;41.90;;;;;;5020448;28;21074;-77
2023/09/18 09:30:00;;;;;;;6.90;6.50;;;20.10;41.50;;;;;;5023800;28;20203;-77
2023/09/18 09:32:31;;;;;;;7.03;6.40;;;20.10;42.60;;;;;;5014775;28;20185;-76
2023/09/18 09:35:02;;;;;;;6.90;6.57;;;20.10;42.20;;;;;;5023118;28;20472;-77
2023/09/18 09:37:31;;;;;;;6.90;6.63;;;20.10;43.20;;;;;;5031112;28;20443;-77
2023/09/18 09:39:59;;;;;;;6.87;6.57;;;20.00;42.70;;;;;;5026555;28;20492;-76
2023/09/18 09:42:25;;;;;;;6.43;6.13;;;20.00;43.40;;;;;;5025229;28;20486;-76
2023/09/18 09:45:12;;;;;;;6.07;5.70;;;20.00;43.30;;;;;;5024527;28;20844;-76
2023/09/18 09:47:38;;;;;;;6.80;6.43;;;20.10;43.30;;;;;;5013972;28;20237;-76
2023/09/18 09:50:09;;;;;;;6.83;6.47;;;20.10;42.30;;;;;;5022052;28;20784;-77
2023/09/18 09:52:36;;;;;;;6.33;5.93;;;20.20;43.00;;;;;;5023439;28;20431;-78
2023/09/18 09:55:22;;;;;;;7.40;6.80;;;20.20;42.30;;;;;;5022677;28;20490;-76
2023/09/18 09:57:50;;;;;;;6.40;6.00;;;20.20;42.70;;;;;;5021417;28;20495;-77
2023/09/18 10:00:26;;;;;;;6.13;5.73;;;20.30;42.90;;;;;;5023261;28;20464;-77
2023/09/18 10:02:55;;;;;;;6.97;6.57;;;20.20;42.10;;;;;;5024530;28;20430;-77
2023/09/18 10:05:24;;;;;;;6.40;6.10;;;20.30;42.20;;;;;;5020188;28;20420;-77
2023/09/18 10:07:50;;;;;;;7.27;6.80;;;20.20;42.30;;;;;;5021436;28;20492;-77
2023/09/18 10:10:16;;;;;;;8.53;7.00;;;20.20;42.20;;;;;;5023748;28;20459;-76
2023/09/18 10:12:43;;;;;;;9.27;6.67;;;20.30;42.30;;;;;;5022852;28;20446;-77
2023/09/18 10:15:12;;;;;;;6.10;5.80;;;20.30;42.20;;;;;;5022840;28;20285;-78
2023/09/18 10:17:46;;;;;;;6.80;6.30;;;20.30;42.30;;;;;;5030194;28;20456;-76
2023/09/18 10:20:19;;;;;;;5.93;5.53;;;20.40;43.10;;;;;;5022360;28;20435;-76
2023/09/18 10:22:55;;;;;;;7.00;6.50;;;20.40;43.20;;;;;;5020735;28;20424;-76
2023/09/18 10:25:24;;;;;;;6.53;6.03;;;20.50;42.80;;;;;;5023640;28;20518;-76
2023/09/18 10:27:58;;;;;;;8.83;6.60;;;20.50;41.70;;;;;;5024016;28;20451;-76
2023/09/18 10:30:25;;;;;;;7.13;6.60;;;20.50;41.90;;;;;;5020447;28;20427;-76
2023/09/18 10:32:51;;;;;;;6.03;5.53;;;20.40;42.00;;;;;;5020553;28;20428;-76
2023/09/18 10:35:19;;;;;;;6.57;6.10;;;20.50;43.20;;;;;;5023074;28;20850;-77
2023/09/18 10:37:47;;;;;;;7.33;6.70;;;20.50;42.00;;;;;;5023878;28;20447;-77
2023/09/18 10:40:12;;;;;;;7.10;6.70;;;20.50;42.90;;;;;;5022601;28;20938;-76
2023/09/18 10:42:40;;;;;;;6.60;6.10;;;20.40;43.90;;;;;;5020749;28;20715;-77
2023/09/18 10:45:12;;;;;;;6.70;6.40;;;20.40;44.90;;;;;;5021049;28;20239;-78
2023/09/18 10:47:45;;;;;;;6.90;6.30;;;20.30;42.90;;;;;;5023500;28;20447;-77
2023/09/18 10:50:11;;;;;;;6.87;6.47;;;20.20;43.10;;;;;;5022195;28;20523;-77
2023/09/18 10:52:43;;;;;;;6.33;5.97;;;20.20;43.50;;;;;;5020125;28;20531;-77
2023/09/18 10:55:12;;;;;;;6.50;6.30;;;20.10;43.00;;;;;;5020302;28;20463;-77
2023/09/18 10:57:38;;;;;;;6.30;5.90;;;20.10;42.90;;;;;;5022884;28;20531;-77
2023/09/18 11:00:13;;;;;;;6.20;5.90;;;20.10;42.80;;;;;;5027128;28;20490;-77
2023/09/18 11:02:42;;;;;;;6.70;6.20;;;20.00;43.50;;;;;;5030239;28;20433;-77
2023/09/18 11:05:08;;;;;;;6.57;6.27;;;20.00;43.00;;;;;;5029447;28;20433;-77
2023/09/18 11:07:34;;;;;;;6.07;5.70;;;20.00;42.70;;;;;;5026749;28;20527;-77
2023/09/18 11:10:19;;;;;;;6.77;6.37;;;20.00;44.20;;;;;;5028359;28;20189;-77
2023/09/18 11:12:45;;;;;;;7.27;6.87;;;20.10;43.20;;;;;;5021547;28;20251;-77
2023/09/18 11:15:30;;;;;;;7.17;6.80;;;20.00;42.40;;;;;;5035990;28;20486;-77
2023/09/18 11:18:01;;;;;;;6.70;6.20;;;20.10;43.80;;;;;;5027884;28;20444;-77
2023/09/18 11:20:28;;;;;;;6.53;6.23;;;20.10;44.50;;;;;;5019955;28;20413;-76
2023/09/18 11:23:16;;;;;;;6.97;6.37;;;20.00;44.50;;;;;;5036190;28;20430;-76
2023/09/18 11:25:42;;;;;;;7.10;6.50;;;20.00;44.60;;;;;;5020589;28;20945;-76
2023/09/18 11:28:13;;;;;;;6.50;6.20;;;19.90;44.20;;;;;;5027609;28;20502;-77
2023/09/18 11:30:58;;;;;;;6.53;6.33;;;20.00;44.00;;;;;;5024972;28;20420;-76
2023/09/18 11:33:36;;;;;;;6.37;6.07;;;19.90;43.90;;;;;;5030342;28;20926;-78
2023/09/18 11:36:07;;;;;;;6.60;6.30;;;19.90;44.60;;;;;;5030261;28;20471;-77
2023/09/18 11:38:35;;;;;;;6.83;6.33;;;20.00;43.90;;;;;;5019068;28;20499;-77
2023/09/18 11:41:19;;;;;;;7.27;6.87;;;20.00;44.10;;;;;;5026349;28;20486;-77
2023/09/18 11:43:45;;;;;;;6.50;6.20;;;20.00;42.80;;;;;;5020587;28;20534;-77
2023/09/18 11:46:12;;;;;;;6.80;6.53;;;20.00;40.30;;;;;;5027483;28;20523;-77
2023/09/18 11:48:41;;;;;;;6.93;6.60;;;20.10;40.80;;;;;;5030038;28;20565;-77
2023/09/18 11:51:11;;;;;;;6.77;6.40;;;20.10;40.40;;;;;;5028980;28;20427;-77
2023/09/18 11:53:40;;;;;;;7.00;6.70;;;20.20;40.80;;;;;;5026808;28;20578;-77
2023/09/18 11:56:17;;;;;;;7.57;7.17;;;20.10;40.40;;;;;;5026542;28;20470;-77
2023/09/18 11:58:50;;;;;;;7.53;7.17;;;20.20;41.00;;;;;;5028590;28;20438;-77
2023/09/18 12:01:17;;;;;;;6.77;6.50;;;20.20;40.50;;;;;;5028144;28;20449;-77
2023/09/18 12:03:43;;;;;;;7.27;6.83;;;20.20;40.60;;;;;;5026159;28;20424;-77
2023/09/18 12:06:12;;;;;;;6.77;6.37;;;20.20;40.60;;;;;;5027386;28;20978;-77
2023/09/18 12:08:39;;;;;;;6.40;6.10;;;20.20;42.50;;;;;;5027968;28;20231;-77
2023/09/18 12:11:05;;;;;;;6.50;6.10;;;20.20;41.10;;;;;;5026674;28;20481;-77
2023/09/18 12:13:31;;;;;;;7.73;7.30;;;20.20;41.30;;;;;;5023438;28;20803;-76
2023/09/18 12:16:04;;;;;;;7.30;6.80;;;20.20;42.10;;;;;;5022875;28;20460;-77
2023/09/18 12:18:31;;;;;;;7.30;6.90;;;20.30;40.70;;;;;;5015513;28;20261;-77
2023/09/18 12:20:58;;;;;;;6.73;6.43;;;20.40;41.20;;;;;;5022826;28;20420;-77
2023/09/18 12:23:24;;;;;;;7.50;7.17;;;20.40;40.70;;;;;;5025531;28;20924;-77
2023/09/18 12:25:57;;;;;;;7.03;6.73;;;20.50;40.80;;;;;;5026182;28;20517;-77
2023/09/18 12:28:27;;;;;;;7.60;7.20;;;20.50;40.80;;;;;;5023619;28;20513;-77
2023/09/18 12:30:56;;;;;;;7.20;6.90;;;20.60;39.70;;;;;;5022981;28;20507;-77
2023/09/18 12:33:22;;;;;;;7.27;6.87;;;20.60;39.60;;;;;;5024851;28;20801;-77
2023/09/18 12:35:47;;;;;;;6.63;6.43;;;20.60;40.20;;;;;;5026045;28;20561;-77
2023/09/18 12:38:15;;;;;;;7.17;6.67;;;20.60;40.80;;;;;;5025005;28;20482;-77
2023/09/18 12:40:40;;;;;;;8.10;7.70;;;20.60;40.20;;;;;;5022397;28;20182;-77
2023/09/18 12:43:06;;;;;;;7.63;7.23;;;20.70;38.90;;;;;;5021090;28;20503;-77
2023/09/18 12:45:33;;;;;;;7.77;7.37;;;20.70;39.10;;;;;;5026037;28;20177;-77